WEATHER DATA

YESTERDAY
Time Temp. Dewp. Hum. Wind dir Wind speed Wind gust Bar. 1h Prec. 24h Prec.
00:02 -0.1 -1.2 91 0 0 1019.1 0.0000 0.0000
00:11 -0.2 -1.5 90 0 0 1019.3 0.0000 0.0000
00:21 -0.2 -1.6 89 0 0 1019.3 0.0000 0.0000
00:32 -0.2 -1.6 89 0 0 1019.5 0.0000 0.0000
00:42 -0.2 -1.6 89 0 0 1019.8 0.0000 0.0000
00:52 -0.2 -1.7 88 0 0 1020 0.0000 0.0000
01:01 -0.2 -1.7 88 0 0 1019.9 0.0000 0.0000
01:12 -0.3 -2 87 0 0 1020 0.0000 0.0000
01:22 -0.3 -2 87 0 0 1020.3 0.0000 0.0000
01:32 -0.4 -2.1 87 0 0 1020.5 0.0000 0.0000
01:42 -0.4 -2.1 87 0 0 1020.6 0.0000 0.0000
01:52 -0.5 -2.2 87 0 0 1021 0.0000 0.0000
02:02 -0.5 -2.2 87 0 0 1021.2 0.0000 0.0000
02:12 -0.5 -2.2 87 0 0 1021.2 0.0000 0.0000
02:23 -0.5 -2.2 87 0 0 1021.4 0.0000 0.0000
02:33 -0.5 -2.2 87 0 0 1021.3 0.0000 0.0000
02:42 -0.5 -2 88 0 0 1021.4 0.0000 0.0000
02:53 -0.7 -2.2 88 0 0 1021.5 0.0000 0.0000
03:03 -0.8 -2.3 88 0 0 1021.6 0.0000 0.0000
03:13 -1 -2.5 88 0 0 1021.5 0.0000 0.0000
03:23 -1.2 -2.7 88 0 0 1021.8 0.0000 0.0000
03:33 -1.3 -2.8 88 0 0 1022 0.0000 0.0000
03:43 -1.6 -3.1 88 0 0 1022.1 0.0000 0.0000
03:53 -1.7 -3.1 89 0 0 1022.1 0.0000 0.0000
04:03 -1.9 -3.3 89 0 0 1022.3 0.0000 0.0000
04:13 -2.1 -3.5 89 0 0 1022.5 0.0000 0.0000
04:23 -2.3 -3.6 90 0 0 1022.5 0.0000 0.0000
04:33 -2.4 -3.7 90 0 0 1022.5 0.0000 0.0000
04:44 -2.6 -3.8 90 0 0 1022.8 0.0000 0.0000
04:54 -2.6 -3.7 91 0 0 1023.1 0.0000 0.0000
05:03 -2.7 -3.7 92 0 0 1023 0.0000 0.0000
05:13 -2.7 -3.7 92 0 0 1023 0.0000 0.0000
05:24 -2.8 -3.8 92 0 0 1023.1 0.0000 0.0000
05:34 -2.8 -3.7 93 0 0 1023.2 0.0000 0.0000
05:44 -2.8 -3.7 93 0 0 1023.1 0.0000 0.0000
05:54 -2.9 -3.8 93 0 0 1023.2 0.0000 0.0000
06:04 -3.1 -4 93 0 0 1023.3 0.0000 0.0000
06:14 -3.3 -4.2 93 0 0 1023.5 0.0000 0.0000
06:24 -3.4 -4.3 93 0 0 1023.6 0.0000 0.0000
06:34 -3.5 -4.4 93 0 0 1023.6 0.0000 0.0000
06:43 -3.7 -4.6 93 0 0 1023.9 0.0000 0.0000
06:54 -3.8 -4.7 93 0 0 1023.8 0.0000 0.0000
07:05 -3.9 -4.8 93 0 0 1024 0.0000 0.0000
07:14 -4.1 -4.8 94 0 0 1024 0.0000 0.0000
07:24 -4.2 -4.9 94 0 0 1023.9 0.0000 0.0000
07:34 -4.3 -5 94 0 0 1024.1 0.0000 0.0000
07:45 -4.4 -5.1 94 0 0 1024.4 0.0000 0.0000
07:55 -4.4 -5.1 94 0 0 1024.4 0.0000 0.0000
08:04 -4.4 -5 95 0 0 1024.7 0.0000 0.0000
08:15 -4.3 -4.9 95 0 0 1024.6 0.0000 0.0000
08:25 -4.2 -4.8 95 0 0 1024.5 0.0000 0.0000
08:35 -4.1 -4.7 95 0 0 1024.7 0.0000 0.0000
08:45 -4.1 -4.7 95 0 0 1024.9 0.0000 0.0000
08:55 -4 -4.6 95 0 0 1024.9 0.0000 0.0000
09:05 -3.9 -4.4 96 0 0 1025 0.0000 0.0000
09:15 -3.8 -4.3 96 0 0 1025 0.0000 0.0000
09:26 -3.6 -4.1 96 0 0 1025.2 0.0000 0.0000
09:35 -3.3 -3.8 96 0 0 1025.3 0.0000 0.0000
09:44 -2.9 -3.4 96 0 0 1025.3 0.0000 0.0000
09:55 -2.6 -3.1 96 0 0 1025.4 0.0000 0.0000
10:06 -2.4 -2.9 96 0 0 1025.6 0.0000 0.0000
10:16 -2.2 -2.7 96 0 0 1025.6 0.0000 0.0000
10:25 -1.9 -2.4 96 0 0 1025.6 0.0000 0.0000
10:36 -1.6 -2.1 96 0 0 1025.7 0.0000 0.0000
10:46 -1.5 -2 96 0 0 1025.7 0.0000 0.0000
10:56 -1.2 -1.7 96 0 0 1025.7 0.0000 0.0000
11:06 -0.9 -1.5 95 0 0 1025.8 0.0000 0.0000
11:17 -0.7 -1.3 95 0 0 1025.8 0.0000 0.0000
11:26 -0.5 -1.1 95 0 0 1026.1 0.0000 0.0000
11:36 -0.3 -1 94 0 0 1026 0.0000 0.0000
11:47 -0.2 -0.9 94 0 0 1026.2 0.0000 0.0000
11:57 -0.1 -0.8 94 0 0 1026.1 0.0000 0.0000
12:06 0.1 -0.7 94 0 0 1026.1 0.0000 0.0000
12:16 0.3 -0.5 94 0 0 1026.1 0.0000 0.0000
12:27 0.5 -0.4 93 0 0 1026.3 0.0000 0.0000
12:37 0.7 -0.3 93 0 0 1026.3 0.0000 0.0000
12:47 0.8 -0.3 92 0 0 1026.3 0.0000 0.0000
12:57 0.9 -0.4 91 0 0 1026.5 0.0000 0.0000
13:07 1.1 -0.3 90 0 0 1026.5 0.0000 0.0000
13:17 1.4 -0.2 89 0 0 1026.4 0.0000 0.0000
13:27 1.7 -0.1 88 0 0 1026.5 0.0000 0.0000
13:38 1.9 0 87 0 0 1026.5 0.0000 0.0000
13:47 2 -0.2 85 0 0 1026.5 0.0000 0.0000
13:57 2 -0.4 84 0 0 1026.4 0.0000 0.0000
14:07 2.1 -0.4 83 0 0 1026.4 0.0000 0.0000
14:18 2.2 -0.5 82 0 0 1026.4 0.0000 0.0000
14:28 2.2 -0.6 81 0 0 1026.3 0.0000 0.0000
14:37 2.3 -0.5 81 0 0 1026.3 0.0000 0.0000
14:48 2.4 -0.6 80 0 0 1026.3 0.0000 0.0000
14:58 2.4 -0.8 79 0 0 1026.1 0.0000 0.0000
15:08 2.5 -0.5 80 0 0 1026.1 0.0000 0.0000
15:18 2.6 -0.6 79 0 0 1026 0.0000 0.0000
15:28 2.7 -0.7 78 0 0 1025.8 0.0000 0.0000
15:38 2.7 -0.7 78 0 0 1025.7 0.0000 0.0000
15:48 2.7 -0.7 78 0 0 1025.5 0.0000 0.0000
15:59 2.6 -0.6 79 0 0 1025.6 0.0000 0.0000
16:08 2.6 -0.4 80 0 0 1025.5 0.0000 0.0000
16:18 2.6 -0.4 80 0 0 1025.4 0.0000 0.0000
16:28 2.6 -0.4 80 0 0 1025.4 0.0000 0.0000
16:39 2.5 -0.5 80 0 0 1025.3 0.0000 0.0000
16:49 2.5 -0.5 80 0 0 1025.1 0.0000 0.0000
16:58 2.5 -0.4 81 0 0 1025 0.0000 0.0000
17:09 2.5 -0.4 81 0 0 1024.8 0.0000 0.0000
17:19 2.4 -0.3 82 0 0 1024.8 0.0000 0.0000
17:29 2.4 -0.3 82 0 0 1024.6 0.0000 0.0000
17:39 2.4 -0.2 83 0 0 1024.7 0.0000 0.0000
17:49 2.4 -0.2 83 0 0 1024.5 0.0000 0.0000
17:59 2.5 0.1 84 0 0 1024.5 0.0000 0.0000
18:09 2.5 0.2 85 0 0 1024.3 0.0000 0.0000
18:20 2.5 0.6 87 0 0 1024.1 0.0000 0.0000
18:30 2.5 0.6 87 0 0 1024 0.0000 0.0000
18:39 2.5 0.7 88 0 0 1023.9 0.0000 0.0000
18:49 2.5 0.9 89 0 0 1023.6 0.1010 0.1000
19:00 2.5 1 90 0 0 1023.5 0.1010 0.1000
19:10 2.5 1.2 91 0 0 1023.5 0.2020 0.2000
19:19 2.5 1.3 92 0 0 1023.2 0.3030 0.3000
19:29 2.5 1.3 92 0 0 1023.1 0.3030 0.3000
19:39 2.6 1.6 93 0 0 1023.2 0.3030 0.3000
19:49 2.6 1.7 94 0 0 1023.1 0.2020 0.3000
19:59 2.7 1.8 94 0 0 1022.9 0.2020 0.3000
20:09 2.8 2.1 95 0 0 1022.8 0.1010 0.3000
20:19 2.9 2.2 95 0 0 1022.7 0.1010 0.4000
20:29 3 2.3 95 0 0 1022.5 0.1010 0.4000
20:40 3.1 2.5 96 0 0 1022.2 0.2020 0.5000
20:50 3.2 2.6 96 0 0 1022.1 0.2020 0.5000
20:59 3.3 2.7 96 0 0 1022 0.2020 0.5000
21:06 3.4 2.8 96 0 0 1021.9 0.3030 0.6000
21:16 3.5 2.9 96 0 0 1021.7 0.2020 0.6000
21:26 3.7 3.1 96 0 0 1021.6 0.3030 0.7000
21:36 3.9 3.5 97 0 0 1021.5 0.3030 0.8000
21:46 4.2 3.8 97 0 0 1021.4 0.4040 0.9000
21:56 4.5 4.1 97 0 0 1021.2 0.5050 1.0000
22:06 4.7 4.3 97 0 0 1021.3 0.5050 1.1000
22:16 4.8 4.4 97 0 0 1021 0.4040 1.1000
22:26 4.9 4.5 97 0 0 1021 0.3030 1.1000
22:37 5 4.6 97 0 0 1020.8 0.2020 1.1000
22:46 5.2 4.8 97 0 0 1020.9 0.2020 1.2000
22:56 5.3 4.9 97 0 0 1020.6 0.1010 1.2000
23:07 5.4 5 97 0 0 1020.4 0.1010 1.2000
23:17 5.6 5.2 97 0 0 1020.2 0.1010 1.2000
23:27 5.7 5.3 97 0 0 1020.2 0.1010 1.2000
23:37 5.8 5.4 97 0 0 1020.1 0.1010 1.2000
23:47 5.9 5.5 97 0 0 1020 0.0000 1.2000
23:57 6 5.6 97 0 0 1019.8 0.0000

DAY STATISTIC

2021-10-24
TEMPERATURE
AVERAGE
0.4
HIGH
6.0
23:57
LOW
-4.4
07:45
PRESSURE
AVERAGE
1023.5
HIGH
1026.5
12:57
LOW
1019.1
00:02
DEWPOINT
AVERAGE
-0.9
HIGH
5.6
23:57
LOW
-5.1
07:45
HUMIDITY
AVERAGE
91
HIGH
97
21:36
LOW
78
15:28
WIND SPEED
AVERAGE
0.0
HIGH
0.0
10:21
WIND GUST
AVERAGE
0.0
HIGH
0.0
10:21
WIND DIRECTION
PREVAILING
%
PRECIPITATION
RAIN HOUR
0.5
RAIN DAY
1.2
TEMPERATURE (°C)
LOW
-4.4
HIGH
6.0
AVERAGE
0.4
PRESSURE (hpa)
LOW
1019.1
HIGH
1026.5
AVERAGE
1023.5
DEVICE